createdAt,value
2019-05-28T00:05:50.199Z,17.87
2019-05-28T00:10:57.429Z,17.98
2019-05-28T00:18:59.569Z,17.88
2019-05-28T00:25:38.675Z,17.89
2019-05-28T00:32:04.649Z,17.87
2019-05-28T00:37:11.597Z,17.87
2019-05-28T00:42:18.615Z,17.81
2019-05-28T00:47:25.571Z,17.78
2019-05-28T00:52:32.607Z,17.70
2019-05-28T00:58:54.100Z,17.60
2019-05-28T01:04:00.254Z,17.59
2019-05-28T01:09:09.392Z,17.49
2019-05-28T01:16:07.576Z,17.27
2019-05-28T01:21:14.451Z,17.21
2019-05-28T01:26:21.555Z,17.21
2019-05-28T01:31:28.493Z,17.04
2019-05-28T01:36:35.629Z,17.04
2019-05-28T01:41:41.355Z,16.75
2019-05-28T01:46:48.435Z,16.75
2019-05-28T01:51:57.054Z,16.69
2019-05-28T01:57:03.254Z,16.62
2019-05-28T02:02:10.423Z,16.55
2019-05-28T02:07:17.572Z,16.48
2019-05-28T02:12:23.315Z,16.45
2019-05-28T02:17:30.443Z,16.39
2019-05-28T02:23:57.597Z,16.24
2019-05-28T02:29:03.366Z,16.22
2019-05-28T02:34:09.282Z,16.22
2019-05-28T02:39:16.433Z,16.15
2019-05-28T02:44:23.475Z,16.09
2019-05-28T02:49:30.453Z,16.03
2019-05-28T02:54:38.049Z,15.96
2019-05-28T02:59:47.349Z,15.89
2019-05-28T03:04:54.526Z,15.81
2019-05-28T03:10:04.576Z,15.71
2019-05-28T03:15:11.584Z,15.60
2019-05-28T03:20:20.426Z,15.55
2019-05-28T03:25:27.581Z,15.55
2019-05-28T03:30:35.555Z,15.52
2019-05-28T03:35:45.066Z,15.48
2019-05-28T03:40:52.451Z,15.48
2019-05-28T03:45:59.552Z,15.56
2019-05-28T03:53:28.741Z,15.49
2019-05-28T03:58:35.619Z,15.62
2019-05-28T04:03:42.559Z,15.62
2019-05-28T04:08:49.437Z,15.62
2019-05-28T04:13:56.532Z,15.62
2019-05-28T04:19:03.738Z,15.73
2019-05-28T04:24:10.560Z,15.79
2019-05-28T04:29:17.455Z,15.81
2019-05-28T04:34:23.323Z,15.81
2019-05-28T04:39:29.340Z,15.83
2019-05-28T04:44:35.290Z,15.89
2019-05-28T04:49:41.298Z,15.98
2019-05-28T04:54:49.372Z,16.08
2019-05-28T04:59:56.457Z,16.23
2019-05-28T05:05:03.558Z,16.39
2019-05-28T05:10:11.106Z,16.55
2019-05-28T05:15:19.577Z,16.55
2019-05-28T05:20:28.415Z,16.66
2019-05-28T05:25:38.244Z,16.70
2019-05-28T05:30:44.274Z,16.77
2019-05-28T05:35:51.531Z,17.00
2019-05-28T05:40:57.358Z,17.10
2019-05-28T05:46:04.922Z,17.05
2019-05-28T05:51:11.919Z,17.07
2019-05-28T05:56:20.247Z,17.11
2019-05-28T06:01:26.281Z,17.21
2019-05-28T06:06:33.726Z,17.37
2019-05-28T06:11:41.282Z,17.37
2019-05-28T06:16:49.264Z,17.58
2019-05-28T06:21:55.293Z,17.77
2019-05-28T06:27:02.449Z,17.84
2019-05-28T06:32:08.519Z,17.94
2019-05-28T06:37:15.545Z,18.08
2019-05-28T06:42:22.554Z,18.36
2019-05-28T06:54:12.262Z,19.31
2019-05-28T06:59:18.301Z,19.66
2019-05-28T07:04:32.615Z,19.99
2019-05-28T07:09:32.670Z,20.35
2019-05-28T07:14:39.586Z,20.72
2019-05-28T07:19:46.586Z,20.94
2019-05-28T07:24:53.562Z,20.94
2019-05-28T07:30:00.538Z,21.18
2019-05-28T07:35:09.266Z,21.47
2019-05-28T07:40:30.534Z,21.72
2019-05-28T07:45:23.878Z,21.75
2019-05-28T07:50:30.683Z,21.55
2019-05-28T07:55:37.557Z,21.58
2019-05-28T08:00:56.652Z,21.61
2019-05-28T08:06:04.563Z,21.61
2019-05-28T08:11:10.401Z,21.45
2019-05-28T08:16:19.141Z,21.36
2019-05-28T08:21:25.317Z,21.52
2019-05-28T08:26:32.412Z,21.69
2019-05-28T08:31:38.284Z,21.82
2019-05-28T08:36:45.508Z,22.05
2019-05-28T08:41:52.591Z,22.21
2019-05-28T08:46:59.465Z,22.36
2019-05-28T08:52:06.486Z,21.99
2019-05-28T08:57:13.464Z,22.16
2019-05-28T09:02:27.845Z,22.58
2019-05-28T09:07:29.809Z,22.99
2019-05-28T09:12:43.584Z,23.32
2019-05-28T09:17:50.601Z,24.22
2019-05-28T09:22:57.598Z,24.13
2019-05-28T09:28:03.624Z,24.13
2019-05-28T09:33:10.674Z,23.14
2019-05-28T09:38:17.574Z,22.33
2019-05-28T09:43:23.317Z,22.33
2019-05-28T09:48:29.312Z,21.87
2019-05-28T09:54:39.555Z,21.37
2019-05-28T09:59:46.488Z,21.75
2019-05-28T10:04:53.468Z,22.68
2019-05-28T10:10:00.452Z,22.68
2019-05-28T10:15:08.051Z,22.60
2019-05-28T10:20:16.346Z,22.40
2019-05-28T10:25:23.573Z,22.47
2019-05-28T10:30:30.564Z,22.32
2019-05-28T10:35:37.583Z,22.32
2019-05-28T10:40:44.592Z,22.84
2019-05-28T10:49:08.760Z,22.74
2019-05-28T10:54:15.645Z,22.91
2019-05-28T10:59:22.575Z,23.09
2019-05-28T11:04:29.567Z,23.09
2019-05-28T11:11:51.280Z,22.86
2019-05-28T11:20:00.602Z,23.52
2019-05-28T11:25:08.590Z,23.43
2019-05-28T11:34:42.560Z,23.79
2019-05-28T11:39:49.591Z,23.69
2019-05-28T11:49:16.575Z,23.11
2019-05-28T11:54:23.494Z,23.78
2019-05-28T11:59:30.470Z,23.78
2019-05-28T12:04:37.549Z,23.98
2019-05-28T12:09:44.467Z,23.98
2019-05-28T12:14:51.568Z,23.61
2019-05-28T12:23:09.539Z,22.94
2019-05-28T12:28:02.485Z,22.94
2019-05-28T12:33:09.575Z,23.00
2019-05-28T12:38:19.710Z,23.34
2019-05-28T12:43:27.421Z,23.34
2019-05-28T12:49:07.217Z,23.62
2019-05-28T12:56:12.587Z,23.28
2019-05-28T13:02:55.431Z,23.15
2019-05-28T13:08:09.171Z,23.20
2019-05-28T13:13:57.097Z,22.97
2019-05-28T13:23:15.605Z,23.14
2019-05-28T13:28:23.514Z,23.45
2019-05-28T13:35:40.581Z,23.30
2019-05-28T13:43:42.554Z,23.47
2019-05-28T13:49:53.574Z,23.49
2019-05-28T13:55:00.439Z,23.36
2019-05-28T14:00:09.242Z,23.36
2019-05-28T14:05:18.439Z,23.16
2019-05-28T14:14:44.674Z,22.46
2019-05-28T14:19:51.435Z,22.83
2019-05-28T14:30:24.064Z,22.68
2019-05-28T14:45:46.605Z,23.18
2019-05-28T14:50:53.446Z,24.33
2019-05-28T14:56:01.567Z,24.33
2019-05-28T15:01:08.656Z,24.65
2019-05-28T15:06:14.528Z,24.40
2019-05-28T15:11:21.442Z,24.40
2019-05-28T15:18:20.577Z,23.66
2019-05-28T15:23:27.525Z,22.79
2019-05-28T15:28:34.558Z,22.79
2019-05-28T15:33:41.545Z,22.80
2019-05-28T15:38:48.435Z,22.48
2019-05-28T15:43:55.505Z,22.32
2019-05-28T15:49:02.573Z,22.21
2019-05-28T16:02:45.600Z,21.74
2019-05-28T16:07:52.454Z,21.68
2019-05-28T16:12:59.449Z,21.68
2019-05-28T16:18:06.474Z,21.83
2019-05-28T16:26:18.599Z,21.47
2019-05-28T16:33:09.395Z,21.26
2019-05-28T16:38:26.943Z,20.98
2019-05-28T16:44:43.575Z,20.57
2019-05-28T16:50:18.912Z,20.39
2019-05-28T16:58:00.609Z,20.27
2019-05-28T17:04:07.580Z,21.09
2019-05-28T17:15:47.462Z,22.36
2019-05-28T17:25:51.465Z,21.86
2019-05-28T17:30:58.428Z,22.48
2019-05-28T17:36:04.283Z,21.40
2019-05-28T17:41:11.436Z,21.22
2019-05-28T17:56:54.594Z,19.24
2019-05-28T18:04:12.595Z,18.93
2019-05-28T18:09:19.441Z,18.70
2019-05-28T18:15:16.087Z,18.60
2019-05-28T18:20:52.571Z,18.62
2019-05-28T18:25:58.321Z,18.49
2019-05-28T18:36:07.673Z,18.26
2019-05-28T18:41:21.669Z,18.35
2019-05-28T18:46:23.452Z,18.35
2019-05-28T18:51:30.579Z,18.17
2019-05-28T18:56:37.488Z,17.97
2019-05-28T19:06:46.519Z,17.51
2019-05-28T19:11:53.478Z,17.51
2019-05-28T19:17:00.562Z,17.32
2019-05-28T19:22:07.554Z,17.08
2019-05-28T19:27:14.505Z,16.81
2019-05-28T19:32:21.471Z,16.52
2019-05-28T19:37:28.653Z,16.31
2019-05-28T19:42:35.496Z,16.05
2019-05-28T19:47:42.461Z,16.05
2019-05-28T19:52:49.465Z,15.96
2019-05-28T19:57:56.466Z,15.85
2019-05-28T20:03:03.581Z,15.73
2019-05-28T20:11:04.598Z,15.47
2019-05-28T20:16:11.483Z,15.45
2019-05-28T20:21:18.465Z,15.34
2019-05-28T20:27:35.588Z,15.16
2019-05-28T20:32:42.442Z,15.00
2019-05-28T20:37:49.442Z,14.96
2019-05-28T20:42:56.454Z,14.96
2019-05-28T20:48:04.636Z,14.91
2019-05-28T20:53:11.584Z,14.87
2019-05-28T21:02:44.512Z,14.66
2019-05-28T21:07:52.957Z,15.51
2019-05-28T21:13:00.472Z,14.96
2019-05-28T21:18:07.466Z,14.63
2019-05-28T21:24:27.305Z,14.53
2019-05-28T21:29:34.485Z,14.50
2019-05-28T21:36:07.568Z,14.38
2019-05-28T21:54:41.518Z,13.93
2019-05-28T21:59:50.300Z,13.93
2019-05-28T22:04:57.486Z,13.88
2019-05-28T22:10:04.590Z,13.81
2019-05-28T22:15:12.710Z,13.64
2019-05-28T22:22:41.583Z,13.52
2019-05-28T22:27:48.563Z,13.45
2019-05-28T22:32:55.808Z,13.45
2019-05-28T22:38:03.386Z,13.39
2019-05-28T22:44:54.609Z,13.30
2019-05-28T22:50:18.274Z,13.24
2019-05-28T22:55:10.475Z,13.24
2019-05-28T23:27:03.626Z,12.60
2019-05-28T23:37:22.669Z,12.43
2019-05-28T23:42:29.566Z,12.35
2019-05-28T23:47:37.260Z,12.35
2019-05-28T23:57:26.722Z,12.20
